Xenia, Kansas
Current Conditions -  °F | °C
As of 4:52 PM on Tuesday 21 Oct 2014 (Local Time) from KCNU Reporting Station
Clear Clear  
Wind Chill: 74°   Ceiling: Unl
Heat Index: 74°   Visibility: 10mi
Dew Point: 56°   Wind: 5mph
Humidity: 53%   Direction: 140°SE
Pressure: 30.05"   Gusts: NA
Location:  37.9449°N, 95.0016°W
Report Text: KCNU 212152Z AUTO 14004KT 10SM CLR 23/13 A3005 RMK AO2 SLP171 T02330133
Loading
Personal Weather Stations






























Interactive Weather Map
Tropical Storm Tracking
New forecast layout! Learn more

10-Day Weather Forecast

Advertisements
Track Severe Weather on mobile